Accueil
METAR-TAF:

METAR-TAF

Aéroports :

Wahoo, Nebraska, États-Unis

latitude: 41-14-26N, longitude: 096-35-40W, altitude: 373 m

Observation

Le bulletin a été fait il y a 32 minutes, à 00:55 UTC
Vent calme
Température 24°C
Humidité 78%
Pression 1019 hPa
Visibilité: 8.0 km
Ciel clair
brume sèche

METAR: KAHQ 220055Z AUTO 00000KT 5SM HZ CLR 24/20 A3009 RMK AO2 T02420201

Heure: 20:27 (01:27 UTC)


TAF: absent

Observations et prévisions météorologiques de plus de 4000 aéroports (messages METAR et TAF).

Les stations disponibles sont représentées par des disques jaunes et rouges sur la carte.

Passer la souris dessus pour voir le nom de la station.

Cliquer dessus pour voir les observations et prévisions météorologiques.

Pour changer de carte: cliquez sur les boutons verts avec une croix noire pour zoomer, sur le bouton vert avec un tiret pour effectuer un zoom arrière, ou sur les flèches vertes pour les cartes adjacentes.


METAR-TAF: